createdAt,value
2018-06-14T00:00:15.690Z,13.19
2018-06-14T00:05:10.404Z,13.14
2018-06-14T00:10:05.309Z,13.18
2018-06-14T00:15:00.961Z,13.21
2018-06-14T00:19:55.687Z,13.22
2018-06-14T00:24:50.787Z,13.18
2018-06-14T00:29:47.259Z,13.19
2018-06-14T00:34:42.062Z,13.15
2018-06-14T00:39:37.025Z,13.16
2018-06-14T00:44:32.947Z,13.11
2018-06-14T00:49:31.384Z,13.11
2018-06-14T00:54:26.559Z,13.14
2018-06-14T00:59:21.222Z,13.10
2018-06-14T01:04:17.934Z,13.13
2018-06-14T01:09:12.607Z,13.14
2018-06-14T01:14:07.834Z,13.08
2018-06-14T01:19:02.436Z,13.01
2018-06-14T01:23:57.084Z,13.11
2018-06-14T01:28:51.792Z,13.08
2018-06-14T01:33:46.427Z,13.06
2018-06-14T01:38:41.134Z,13.08
2018-06-14T01:43:35.719Z,13.11
2018-06-14T01:48:30.449Z,12.99
2018-06-14T01:53:25.078Z,12.94
2018-06-14T01:58:19.749Z,12.94
2018-06-14T02:03:14.541Z,12.80
2018-06-14T02:08:09.182Z,12.86
2018-06-14T02:13:03.790Z,12.82
2018-06-14T02:17:59.346Z,12.74
2018-06-14T02:22:54.635Z,12.68
2018-06-14T02:27:49.294Z,12.83
2018-06-14T02:32:44.192Z,12.75
2018-06-14T02:37:41.329Z,12.64
2018-06-14T02:42:36.059Z,12.71
2018-06-14T02:47:30.814Z,12.54
2018-06-14T02:52:25.510Z,12.50
2018-06-14T02:57:20.235Z,12.43
2018-06-14T03:02:14.887Z,12.41
2018-06-14T03:07:10.300Z,12.39
2018-06-14T03:12:06.061Z,12.32
2018-06-14T03:17:00.757Z,12.37
2018-06-14T03:21:55.448Z,12.37
2018-06-14T03:26:50.209Z,12.34
2018-06-14T03:31:45.806Z,12.44
2018-06-14T03:36:40.712Z,12.28
2018-06-14T03:41:35.382Z,12.23
2018-06-14T03:46:31.794Z,12.24
2018-06-14T03:51:26.494Z,12.25
2018-06-14T03:56:21.200Z,12.31
2018-06-14T04:01:16.028Z,12.25
2018-06-14T04:06:10.734Z,12.36
2018-06-14T04:11:08.667Z,12.35
2018-06-14T04:16:03.306Z,12.38
2018-06-14T04:20:57.919Z,12.41
2018-06-14T04:31:17.349Z,12.84
2018-06-14T04:36:11.954Z,13.12
2018-06-14T04:41:07.242Z,13.44
2018-06-14T04:46:02.103Z,13.98
2018-06-14T04:50:56.726Z,14.39
2018-06-14T04:55:51.380Z,14.80
2018-06-14T05:00:46.055Z,15.23
2018-06-14T05:05:40.830Z,15.38
2018-06-14T05:10:35.572Z,15.70
2018-06-14T05:15:30.404Z,15.85
2018-06-14T05:20:25.096Z,16.41
2018-06-14T05:25:20.875Z,16.81
2018-06-14T05:30:15.625Z,16.85
2018-06-14T05:35:10.375Z,17.02
2018-06-14T05:40:05.182Z,16.36
2018-06-14T05:44:59.786Z,16.29
2018-06-14T05:49:55.482Z,16.16
2018-06-14T05:54:50.270Z,16.18
2018-06-14T05:59:45.092Z,16.32
2018-06-14T06:04:39.736Z,16.05
2018-06-14T06:09:34.014Z,15.79
2018-06-14T06:14:28.663Z,15.76
2018-06-14T06:19:23.323Z,15.55
2018-06-14T06:24:17.969Z,15.50
2018-06-14T06:29:12.614Z,15.67
2018-06-14T06:34:07.278Z,15.75
2018-06-14T06:39:07.045Z,15.75
2018-06-14T06:44:01.805Z,15.70
2018-06-14T06:48:56.803Z,16.21
2018-06-14T06:53:51.499Z,16.59
2018-06-14T06:58:46.117Z,16.98
2018-06-14T07:03:40.991Z,16.81
2018-06-14T07:08:35.655Z,17.08
2018-06-14T07:13:31.720Z,17.50
2018-06-14T07:18:31.858Z,17.50
2018-06-14T07:34:17.255Z,17.95
2018-06-14T07:39:15.178Z,18.56
2018-06-14T07:49:53.450Z,19.28
2018-06-14T07:54:48.297Z,20.22
2018-06-14T07:59:43.342Z,19.61
2018-06-14T08:04:48.605Z,19.94
2018-06-14T08:14:48.049Z,20.51
2018-06-14T08:19:45.405Z,21.70
2018-06-14T08:25:38.069Z,21.31
2018-06-14T08:30:34.109Z,21.36
2018-06-14T08:35:30.648Z,21.56
2018-06-14T08:40:32.845Z,21.29
2018-06-14T08:45:27.738Z,21.85
2018-06-14T08:50:22.460Z,21.78
2018-06-14T08:55:17.359Z,21.72
2018-06-14T09:00:12.130Z,22.21
2018-06-14T09:05:06.903Z,21.83
2018-06-14T09:10:01.725Z,20.31
2018-06-14T09:14:57.310Z,19.30
2018-06-14T09:19:52.250Z,19.07
2018-06-14T09:24:46.998Z,19.52
2018-06-14T09:29:41.867Z,21.52
2018-06-14T09:34:45.458Z,22.49
2018-06-14T09:39:40.274Z,22.89
2018-06-14T09:44:35.141Z,23.01
2018-06-14T09:49:31.590Z,23.19
2018-06-14T09:54:27.054Z,21.25
2018-06-14T09:59:21.894Z,21.85
2018-06-14T10:04:39.394Z,20.78
2018-06-14T10:09:34.283Z,20.28
2018-06-14T10:14:30.079Z,20.37
2018-06-14T10:19:24.996Z,19.67
2018-06-14T10:24:19.775Z,19.72
2018-06-14T10:29:14.650Z,19.68
2018-06-14T10:34:09.609Z,20.85
2018-06-14T10:39:06.164Z,20.78
2018-06-14T10:44:01.311Z,20.68
2018-06-14T10:48:57.031Z,20.29
2018-06-14T10:53:52.205Z,20.44
2018-06-14T10:58:47.279Z,21.63
2018-06-14T11:03:42.446Z,21.58
2018-06-14T11:08:37.656Z,23.34
2018-06-14T11:13:32.661Z,22.56
2018-06-14T11:18:27.864Z,22.19
2018-06-14T11:23:23.227Z,21.54
2018-06-14T11:28:19.097Z,21.10
2018-06-14T11:33:14.225Z,21.67
2018-06-14T11:38:09.581Z,22.94
2018-06-14T11:43:04.780Z,21.80
2018-06-14T11:47:59.996Z,21.17
2018-06-14T11:53:16.450Z,20.83
2018-06-14T11:58:11.426Z,20.62
2018-06-14T12:03:08.852Z,21.20
2018-06-14T12:08:04.265Z,22.58
2018-06-14T12:13:00.123Z,23.53
2018-06-14T12:17:58.193Z,23.25
2018-06-14T12:22:53.688Z,22.07
2018-06-14T12:27:50.991Z,21.57
2018-06-14T12:33:07.865Z,21.63
2018-06-14T12:38:03.605Z,21.95
2018-06-14T12:48:23.856Z,22.18
2018-06-14T12:53:26.610Z,22.28
2018-06-14T12:58:36.162Z,22.52
2018-06-14T13:03:31.259Z,22.23
2018-06-14T13:08:26.258Z,22.21
2018-06-14T13:13:22.072Z,21.91
2018-06-14T13:18:17.137Z,21.99
2018-06-14T13:23:11.849Z,22.06
2018-06-14T13:28:06.854Z,21.90
2018-06-14T13:33:03.986Z,21.37
2018-06-14T13:37:59.041Z,21.49
2018-06-14T13:42:54.805Z,21.99
2018-06-14T13:47:49.580Z,22.32
2018-06-14T13:52:45.164Z,22.27
2018-06-14T13:58:06.088Z,21.75
2018-06-14T14:03:18.046Z,21.62
2018-06-14T14:08:29.168Z,21.78
2018-06-14T14:13:24.233Z,21.74
2018-06-14T14:18:19.310Z,22.07
2018-06-14T14:23:14.662Z,22.21
2018-06-14T14:28:09.772Z,22.07
2018-06-14T14:33:04.661Z,22.14
2018-06-14T14:37:59.708Z,21.98
2018-06-14T14:42:54.982Z,21.60
2018-06-14T14:47:49.996Z,21.63
2018-06-14T14:52:45.045Z,21.35
2018-06-14T14:57:40.648Z,21.42
2018-06-14T15:02:35.685Z,21.40
2018-06-14T15:07:47.569Z,21.51
2018-06-14T15:12:42.916Z,21.28
2018-06-14T15:17:37.953Z,21.27
2018-06-14T15:22:33.138Z,21.32
2018-06-14T15:27:30.048Z,21.31
2018-06-14T15:32:25.005Z,21.34
2018-06-14T15:37:24.659Z,21.32
2018-06-14T15:42:30.539Z,21.24
2018-06-14T15:47:26.456Z,21.28
2018-06-14T15:52:21.403Z,21.31
2018-06-14T15:57:16.256Z,21.18
2018-06-14T16:02:12.274Z,21.02
2018-06-14T16:07:07.462Z,21.17
2018-06-14T16:12:01.968Z,21.14
2018-06-14T16:16:56.862Z,20.97
2018-06-14T16:21:51.695Z,20.91
2018-06-14T16:26:46.627Z,20.99
2018-06-14T16:31:41.520Z,20.91
2018-06-14T16:36:36.310Z,20.95
2018-06-14T16:41:31.324Z,20.75
2018-06-14T16:46:26.292Z,20.78
2018-06-14T16:51:21.194Z,20.80
2018-06-14T16:56:16.028Z,20.77
2018-06-14T17:01:10.800Z,20.78
2018-06-14T17:06:05.683Z,20.69
2018-06-14T17:11:00.528Z,20.71
2018-06-14T17:15:55.404Z,20.60
2018-06-14T17:20:52.677Z,20.48
2018-06-14T17:25:49.955Z,20.28
2018-06-14T17:30:45.692Z,20.31
2018-06-14T17:35:42.248Z,20.34
2018-06-14T17:40:37.792Z,20.23
2018-06-14T17:45:32.734Z,20.23
2018-06-14T17:50:27.587Z,20.14
2018-06-14T17:55:23.772Z,20.03
2018-06-14T18:00:19.090Z,19.88
2018-06-14T18:05:14.052Z,19.73
2018-06-14T18:10:09.013Z,19.57
2018-06-14T18:15:04.105Z,19.35
2018-06-14T18:19:58.958Z,19.14
2018-06-14T18:24:57.504Z,19.00
2018-06-14T18:29:52.552Z,18.73
2018-06-14T18:34:47.757Z,18.53
2018-06-14T18:39:42.895Z,18.23
2018-06-14T18:48:10.758Z,18.06
2018-06-14T18:53:07.349Z,17.96
2018-06-14T18:58:02.349Z,17.93
2018-06-14T19:02:57.388Z,17.92
2018-06-14T19:07:52.597Z,17.85
2018-06-14T19:12:51.225Z,17.74
2018-06-14T19:20:19.333Z,17.61
2018-06-14T19:37:22.345Z,17.15
2018-06-14T19:42:26.906Z,16.82
2018-06-14T19:47:44.995Z,17.07
2018-06-14T19:57:31.502Z,17.29
2018-06-14T20:02:29.057Z,16.72
2018-06-14T20:17:54.528Z,16.37
2018-06-14T20:22:49.462Z,16.41
2018-06-14T20:27:44.248Z,16.36
2018-06-14T20:32:38.983Z,16.40
2018-06-14T20:37:35.314Z,16.36
2018-06-14T20:42:30.141Z,16.25
2018-06-14T20:47:24.808Z,15.97
2018-06-14T20:52:20.230Z,16.15
2018-06-14T20:57:15.628Z,16.09
2018-06-14T21:02:10.340Z,15.99
2018-06-14T21:07:05.212Z,16.06
2018-06-14T21:12:00.086Z,15.93
2018-06-14T21:16:54.835Z,16.00
2018-06-14T21:21:49.550Z,15.88
2018-06-14T21:26:44.443Z,16.01
2018-06-14T21:31:39.184Z,15.65
2018-06-14T21:36:34.915Z,15.67
2018-06-14T21:41:34.540Z,15.81
2018-06-14T21:46:29.655Z,15.73
2018-06-14T21:51:48.420Z,15.74
2018-06-14T21:56:45.160Z,15.83
2018-06-14T22:01:40.019Z,15.77
2018-06-14T22:06:34.701Z,15.90
2018-06-14T22:11:29.557Z,15.85
2018-06-14T22:16:24.577Z,15.76
2018-06-14T22:21:19.503Z,15.70
2018-06-14T22:26:14.310Z,15.69
2018-06-14T22:31:09.014Z,15.58
2018-06-14T22:36:07.997Z,15.46
2018-06-14T22:41:03.111Z,15.34
2018-06-14T22:45:57.834Z,15.31
2018-06-14T22:51:09.154Z,15.40
2018-06-14T22:56:03.645Z,15.39
2018-06-14T23:01:38.115Z,15.22
2018-06-14T23:06:33.166Z,14.97
2018-06-14T23:11:28.007Z,14.85
2018-06-14T23:16:22.832Z,15.00
2018-06-14T23:21:17.704Z,14.76
2018-06-14T23:26:12.590Z,14.72
2018-06-14T23:31:08.309Z,14.76
2018-06-14T23:36:03.040Z,14.78
2018-06-14T23:40:57.781Z,14.71
2018-06-14T23:45:53.544Z,14.67
2018-06-14T23:50:48.324Z,14.72
2018-06-14T23:55:43.269Z,14.67
